Latest Weather Observations for Khancoban

IDN60801

Issued at 1:05 pm EST Wednesday 30 July 2014 (issued every 30 minutes, with the page automatically refreshed every 10 minutes)

About weather observations | Map of weather stations | Latest weather observations for NSW | Other Formats
Station Details ID: 072162 Name: KHANCOBAN AWS Lat: -36.23 Lon: 148.14 Height: 339.3 m
Data from the previous 72 hours. | See also: Recent months at Khancoban
Date/Time
EST
Temp
°C
App
Temp
°C
Dew
Point
Rel
Hum
%
Delta-T
°C
Wind Press
QNH
hPa
Press
MSL
hPa
Rain
since 9 am
mm
Dir
 
Spd
km/h
Gust
km/h
Spd
kts
Gust
kts
30/01:00pm 13.1 9.7 11.2 88 1.0 NNW 20 32 11 17 1016.5 1017.3 0.0
30/12:30pm 13.3 9.6 11.5 89 1.0 NNW 22 33 12 18 1016.8 - 0.0
30/12:00pm 13.2 9.3 10.7 85 1.3 NNW 22 37 12 20 1017.0 1017.8 0.0
30/11:30am 13.1 9.7 11.2 88 1.0 NNW 20 26 11 14 1017.2 - 0.0
30/11:00am 13.1 9.7 11.3 89 1.0 NW 20 30 11 16 1017.5 1018.3 0.0
30/10:30am 13.0 10.3 11.6 91 0.8 NW 17 24 9 13 1017.4 - 0.0
30/10:00am 12.6 8.6 11.8 95 0.4 NNW 24 35 13 19 1017.3 1018.1 0.0
30/09:30am 12.6 9.5 11.5 93 0.6 N 19 30 10 16 1016.9 - 0.0
30/09:00am 12.4 9.5 11.0 91 0.7 NNW 17 26 9 14 1017.0 1017.8 0.2
30/08:30am 12.2 9.3 11.1 93 0.6 N 17 24 9 13 1016.8 - 0.2
30/08:00am 12.1 9.2 11.0 93 0.6 NNW 17 22 9 12 1016.6 1017.4 0.2
30/07:30am 11.9 10.2 11.1 95 0.4 NNW 11 17 6 9 1016.4 - 0.2
30/07:00am 12.0 10.6 10.9 93 0.6 N 9 17 5 9 1016.4 1017.2 0.2
30/06:30am 12.0 10.5 10.7 92 0.7 N 9 17 5 9 1016.3 - 0.2
30/06:00am 11.8 10.0 10.7 93 0.6 NW 11 13 6 7 1016.0 1016.7 0.2
30/05:30am 12.3 9.2 10.2 87 1.1 N 17 22 9 12 1015.5 - 0.2
30/05:00am 12.5 9.7 9.9 84 1.4 NNW 15 22 8 12 1015.5 1016.2 0.2
30/04:30am 12.4 10.0 10.0 85 1.3 N 13 17 7 9 1015.6 - 0.2
30/04:00am 12.3 9.9 10.2 87 1.1 NNE 13 20 7 11 1015.4 1016.1 0.2
30/03:30am 11.9 9.6 10.6 92 0.7 N 13 17 7 9 1015.6 - 0.2
30/03:00am 12.8 11.0 9.4 80 1.8 NNE 9 11 5 6 1015.8 1016.5 0.0
30/02:30am 12.8 10.5 8.9 77 2.0 NNW 11 30 6 16 1015.9 - 0.0
30/02:00am 12.6 11.3 9.2 80 1.7 NE 6 15 3 8 1015.8 1016.5 0.0
30/01:30am 12.1 11.2 9.3 83 1.4 WNW 4 11 2 6 1016.2 - 0.0
30/01:00am 12.4 10.9 8.3 76 2.1 SSE 6 9 3 5 1015.9 1016.6 0.0
30/12:30am 13.1 10.4 7.5 69 2.8 NNW 11 15 6 8 1015.8 - 0.0
30/12:00am 12.9 11.8 6.7 66 3.0 W 2 9 1 5 1016.1 1016.8 0.0
 
Date/Time
EST
Temp
°C
App
Temp
°C
Dew
Point
Rel
Hum
%
Delta-T
°C
Wind Press
QNH
hPa
Press
MSL
hPa
Rain
since 9 am
mm
Dir
 
Spd
km/h
Gust
km/h
Spd
kts
Gust
kts
29/11:30pm 13.5 9.9 6.6 63 3.4 N 15 22 8 12 1015.9 - 0.0
29/11:00pm 13.6 9.1 6.0 60 3.7 N 19 24 10 13 1016.0 1016.7 0.0
29/10:30pm 13.5 9.2 5.2 57 3.9 N 17 26 9 14 1016.3 - 0.0
29/10:00pm 13.5 8.5 4.6 55 4.2 N 20 32 11 17 1015.9 1016.6 0.0
29/09:30pm 13.9 9.4 4.2 52 4.5 N 17 26 9 14 1016.0 - 0.0
29/09:00pm 13.5 8.7 4.9 56 4.1 N 19 24 10 13 1016.0 1016.7 0.0
29/08:30pm 13.3 9.3 4.7 56 4.0 NNE 15 22 8 12 1016.1 - 0.0
29/08:00pm 13.3 9.7 5.0 57 3.9 N 13 19 7 10 1016.5 1017.3 0.0
29/07:30pm 13.7 8.7 4.8 55 4.2 NNE 20 32 11 17 1016.3 - 0.0
29/07:00pm 13.6 8.9 5.3 57 4.0 N 19 30 10 16 1016.4 1017.2 0.0
29/06:30pm 13.6 8.7 5.3 57 4.0 N 20 33 11 18 1016.0 - 0.0
29/06:00pm 13.6 9.3 5.3 57 4.0 N 17 33 9 18 1016.0 1016.7 0.0
29/05:30pm 13.2 8.6 5.4 59 3.7 N 19 28 10 15 1015.7 - 0.0
29/05:00pm 13.1 8.5 5.5 60 3.6 N 19 26 10 14 1015.3 1016.0 0.0
29/04:30pm 13.2 8.5 5.1 58 3.8 N 19 30 10 16 1015.5 - 0.0
29/04:00pm 13.3 8.1 5.5 59 3.7 NNW 22 35 12 19 1015.2 1015.9 0.0
29/03:30pm 14.7 9.2 5.8 55 4.3 NNW 24 35 13 19 1014.8 - 0.0
29/03:00pm 14.9 9.4 5.7 54 4.5 NW 24 32 13 17 1014.8 1015.6 0.0
29/02:43pm 14.8 8.3 4.8 51 4.8 NW 28 46 15 25 1014.8 - 0.0
29/02:30pm 14.9 8.9 5.1 52 4.7 NW 26 35 14 19 1014.8 - 0.0
29/02:00pm 14.9 8.9 5.4 53 4.6 NW 26 39 14 21 1014.9 1015.7 0.0
29/01:30pm 14.6 10.0 6.7 59 3.9 NW 20 28 11 15 1015.5 - 0.0
29/01:00pm 15.2 10.9 5.1 51 4.8 NNW 17 20 9 11 1015.6 1016.3 0.0
29/12:30pm 15.1 10.6 6.1 55 4.4 N 19 30 10 16 1014.7 - 0.0
29/12:00pm 14.1 9.6 6.0 58 3.9 N 19 24 10 13 1016.0 1016.7 0.0
29/11:30am 11.5 9.3 6.0 69 2.6 SSE 7 11 4 6 1017.5 - 0.0
29/11:00am 10.3 9.2 6.8 79 1.7 WNW 2 7 1 4 1018.0 1018.8 0.0
29/10:30am 9.9 7.9 6.1 77 1.8 E 6 9 3 5 1017.7 - 0.0
29/10:00am 7.5 5.6 7.5 100 0.0 WSW 7 11 4 6 1018.0 1018.8 0.0
29/09:30am 8.1 6.9 6.6 90 0.7 ENE 2 7 1 4 1018.0 - 0.0
29/09:00am 6.6 5.4 6.6 100 0.0 W 2 7 1 4 1018.1 1018.9 0.0
29/08:30am 6.0 3.9 6.0 100 0.0 ENE 6 9 3 5 1017.5 - 0.0
29/08:00am 4.7 3.5 4.7 100 0.0 CALM 0 0 0 0 1017.4 1018.2 0.0
29/07:30am 4.4 3.2 4.4 100 0.0 CALM 0 0 0 0 1017.4 - 0.0
29/07:00am 4.7 3.5 4.7 100 0.0 CALM 0 0 0 0 1017.4 1018.2 0.0
29/06:30am 5.3 4.2 5.3 100 0.0 CALM 0 0 0 0 1017.3 - 0.0
29/06:00am 5.7 4.7 5.7 100 0.0 CALM 0 0 0 0 1017.0 1017.8 0.0
29/05:30am 5.9 5.0 5.9 100 0.0 CALM 0 0 0 0 1016.9 - 0.0
29/05:00am 6.0 5.1 6.0 100 0.0 CALM 0 0 0 0 1016.8 1017.6 0.0
29/04:30am 6.0 4.3 6.0 100 0.0 N 4 7 2 4 1016.9 - 0.0
29/04:00am 6.3 4.3 6.3 100 0.0 SW 6 11 3 6 1017.1 1017.9 0.0
29/03:30am 6.6 5.8 6.6 100 0.0 CALM 0 0 0 0 1016.9 - 0.0
29/03:00am 6.3 5.5 6.3 100 0.0 CALM 0 4 0 2 1017.1 1017.9 0.0
29/02:30am 6.5 4.6 6.5 100 0.0 NNE 6 7 3 4 1017.4 - 0.0
29/02:00am 5.8 3.1 5.8 100 0.0 SSW 9 11 5 6 1017.5 1018.3 0.0
29/01:30am 7.0 5.9 7.0 100 0.0 NNE 2 9 1 5 1017.6 - 0.0
29/01:00am 6.8 5.7 6.8 100 0.0 SW 2 6 1 3 1017.6 1018.4 0.0
29/12:30am 6.9 5.8 6.9 100 0.0 ENE 2 7 1 4 1017.8 - 0.0
29/12:00am 7.3 5.9 7.3 100 0.0 NNW 4 7 2 4 1018.5 1019.2 0.0
 
Date/Time
EST
Temp
°C
App
Temp
°C
Dew
Point
Rel
Hum
%
Delta-T
°C
Wind Press
QNH
hPa
Press
MSL
hPa
Rain
since 9 am
mm
Dir
 
Spd
km/h
Gust
km/h
Spd
kts
Gust
kts
28/11:30pm 7.9 7.4 7.9 100 0.0 CALM 0 0 0 0 1018.5 - 0.0
28/11:00pm 7.7 5.5 7.7 100 0.0 N 9 11 5 6 1018.8 1019.6 0.0
28/10:30pm 7.8 6.2 7.8 100 0.0 SE 6 9 3 5 1018.8 - 0.0
28/10:00pm 8.2 7.8 8.2 100 0.0 CALM 0 0 0 0 1018.8 1019.6 0.0
28/09:30pm 8.6 7.0 8.6 100 0.0 NE 7 9 4 5 1019.0 - 0.0
28/09:00pm 8.1 7.3 8.1 100 0.0 NE 2 6 1 3 1019.2 1020.0 0.0
28/08:30pm 8.7 6.7 8.7 100 0.0 NNE 9 11 5 6 1019.3 - 0.0
28/08:00pm 8.5 7.0 8.5 100 0.0 SSE 6 7 3 4 1019.3 1020.1 0.0
28/07:30pm 8.6 7.5 8.6 100 0.0 ESE 4 9 2 5 1019.3 - 0.0
28/07:00pm 9.1 7.7 9.0 99 0.0 SSE 6 7 3 4 1019.4 1020.2 0.0
28/06:30pm 9.2 9.0 9.1 99 0.1 CALM 0 0 0 0 1019.2 - 0.0
28/06:00pm 9.2 8.6 8.9 98 0.1 NNE 2 6 1 3 1019.1 1019.9 0.0
28/05:30pm 9.8 8.5 9.2 96 0.3 NE 6 7 3 4 1019.1 - 0.0
28/05:00pm 12.0 11.6 8.1 77 1.9 CALM 0 2 0 1 1018.5 1019.2 0.0
28/04:30pm 12.5 11.9 7.4 71 2.5 CALM 0 0 0 0 1018.6 - 0.0
28/04:00pm 12.7 11.2 8.6 76 2.1 NW 6 9 3 5 1018.5 1019.2 0.0
28/03:30pm 12.8 10.7 8.3 74 2.3 NW 9 13 5 7 1018.7 - 0.0
28/03:00pm 13.5 11.6 6.6 63 3.4 WNW 6 11 3 6 1018.7 1019.4 0.0
28/02:30pm 13.3 12.0 7.7 69 2.8 WSW 4 9 2 5 1018.8 - 0.0
28/02:00pm 12.1 11.5 7.6 74 2.2 CALM 0 0 0 0 1019.1 1019.9 0.0
28/01:30pm 11.9 11.3 7.2 73 2.3 CALM 0 0 0 0 1019.4 - 0.0
28/01:00pm 11.2 9.3 6.5 73 2.3 W 6 9 3 5 1020.1 1020.9 0.0
28/12:30pm 11.1 10.6 7.8 80 1.6 CALM 0 6 0 3 1020.6 - 0.0
28/12:00pm 10.0 8.4 7.9 87 1.0 W 6 7 3 4 1021.6 1022.4 0.0
28/11:30am 9.4 9.1 8.6 95 0.4 CALM 0 0 0 0 1022.0 - 0.0
28/11:00am 8.7 8.4 8.6 99 0.0 CALM 0 0 0 0 1022.6 1023.4 0.0
28/10:30am 8.0 7.5 7.9 99 0.0 CALM 0 0 0 0 1022.9 - 0.0
28/10:00am 7.2 5.8 7.2 100 0.0 WNW 4 7 2 4 1022.7 1023.5 0.0
28/09:30am 6.7 5.9 6.7 100 0.0 CALM 0 0 0 0 1022.6 - 0.0
28/09:00am 6.5 5.7 6.5 100 0.0 CALM 0 0 0 0 1022.5 1023.3 0.2
28/08:30am 6.0 5.1 6.0 100 0.0 CALM 0 0 0 0 1022.6 - 0.2
28/08:00am 5.4 4.4 5.4 100 0.0 CALM 0 0 0 0 1022.7 1023.5 0.2
28/07:30am 4.8 2.9 4.8 100 0.0 ENE 4 9 2 5 1022.7 - 0.2
28/07:00am 4.6 3.4 4.6 100 0.0 CALM 0 0 0 0 1022.6 1023.4 0.2
28/06:30am 4.9 2.6 4.9 100 0.0 E 6 9 3 5 1022.4 - 0.2
28/06:00am 5.0 2.5 5.0 100 0.0 S 7 9 4 5 1022.7 1023.5 0.2
28/05:30am 5.0 2.7 5.0 100 0.0 SSW 6 9 3 5 1022.7 - 0.2
28/05:00am 5.0 3.5 5.0 100 0.0 S 2 6 1 3 1022.5 1023.3 0.2
28/04:30am 4.9 3.4 4.9 100 0.0 S 2 6 1 3 1022.4 - 0.2
28/04:00am 5.0 2.7 5.0 100 0.0 SE 6 7 3 4 1022.4 1023.2 0.2
28/03:30am 5.0 3.1 5.0 100 0.0 SE 4 7 2 4 1022.5 - 0.2
28/03:00am 4.5 2.1 4.5 100 0.0 SSE 6 7 3 4 1022.7 1023.5 0.2
28/02:30am 4.4 3.2 4.4 100 0.0 CALM 0 6 0 3 1023.0 - 0.2
28/02:00am 4.3 1.9 4.3 100 0.0 SSE 6 9 3 5 1023.4 1024.2 0.2
28/01:30am 4.1 1.7 4.1 100 0.0 SSE 6 9 3 5 1023.7 - 0.2
28/01:00am 4.0 2.7 4.0 100 0.0 CALM 0 0 0 0 1023.7 1024.6 0.2
28/12:30am 3.8 1.3 3.8 100 0.0 ESE 6 9 3 5 1023.6 - 0.2
28/12:00am 4.2 2.9 4.2 100 0.0 CALM 0 0 0 0 1023.7 1024.6 0.2
 
Date/Time
EST
Temp
°C
App
Temp
°C
Dew
Point
Rel
Hum
%
Delta-T
°C
Wind Press
QNH
hPa
Press
MSL
hPa
Rain
since 9 am
mm
Dir
 
Spd
km/h
Gust
km/h
Spd
kts
Gust
kts
27/11:30pm 4.6 2.3 4.6 100 0.0 SE 6 9 3 5 1023.7 - 0.2
27/11:00pm 5.6 3.5 5.6 100 0.0 NNE 6 6 3 3 1024.0 1024.9 0.2
27/10:30pm 5.9 4.2 5.9 100 0.0 WSW 4 9 2 5 1024.6 - 0.2
27/10:00pm 7.1 6.4 7.1 100 0.0 CALM 0 0 0 0 1025.0 1025.8 0.2
27/09:30pm 7.7 6.4 7.7 100 0.0 WNW 4 7 2 4 1024.7 - 0.2
27/09:00pm 8.1 6.9 8.1 100 0.0 W 4 7 2 4 1024.7 1025.5 0.2
27/08:30pm 8.2 7.8 8.2 100 0.0 CALM 0 0 0 0 1024.3 - 0.2
27/08:00pm 8.7 8.4 8.7 100 0.0 CALM 0 6 0 3 1024.3 1025.2 0.2
27/07:30pm 8.5 7.8 8.5 100 0.0 W 2 9 1 5 1024.2 - 0.2
27/07:00pm 8.8 8.5 8.7 99 0.0 CALM 0 0 0 0 1024.0 1024.9 0.2
27/06:30pm 8.7 8.0 8.6 99 0.0 ENE 2 6 1 3 1023.5 - 0.2
27/06:00pm 8.9 8.5 8.1 95 0.4 CALM 0 7 0 4 1023.3 1024.1 0.2
27/05:30pm 9.4 9.1 8.6 95 0.4 CALM 0 0 0 0 1023.3 - 0.2
27/05:00pm 11.2 10.2 8.8 85 1.2 WNW 4 9 2 5 1023.4 1024.2 0.2
27/04:30pm 12.4 11.1 7.5 72 2.4 NW 4 6 2 3 1023.2 - 0.2
27/04:00pm 12.4 10.7 8.5 77 2.0 WNW 7 11 4 6 1023.3 1024.1 0.2
27/03:30pm 13.1 10.3 7.1 67 3.0 NW 11 17 6 9 1023.6 - 0.2
27/03:00pm 14.3 11.7 7.6 64 3.4 NW 11 15 6 8 1023.6 1024.5 0.2
27/02:30pm 14.2 11.3 8.2 67 3.1 WNW 13 17 7 9 1023.5 - 0.2
27/02:00pm 13.3 11.2 8.2 71 2.6 WSW 9 13 5 7 1023.6 1024.5 0.0
27/01:30pm 12.9 11.7 8.2 73 2.4 NW 4 9 2 5 1024.1 - 0.0

Other Formats:

Comma delimited format used in spreadsheet applications
http://www.bom.gov.au/fwo/IDN60801/IDN60801.94919.axf

JavaScript Object Notation format (JSON) in row-major order
http://www.bom.gov.au/fwo/IDN60801/IDN60801.94919.json